Time;durP1;ratioP1;P1;durP2;ratioP2;P2;SDS_P1;SDS_P2;PMS_P1;PMS_P2;Temp;Humidity;BMP_temperature;BMP_pressure;BME280_temperature;BME280_humidity;BME280_pressure;Samples;Min_cycle;Max_cycle;Signal;HPM_P1;HPM_P2
2022/10/24 00:01:31;;;;;;;;;1.75;1.00;;;;;18.54;58.29;99854.72;5092231;27;45489;-62
2022/10/24 00:03:57;;;;;;;;;1.25;0.50;;;;;18.52;58.32;99854.81;5080583;27;45362;-62
2022/10/24 00:06:22;;;;;;;;;0.50;0.50;;;;;18.51;58.20;99858.47;5095406;27;45510;-61
2022/10/24 00:08:48;;;;;;;;;0.00;0.00;;;;;18.53;58.23;99858.31;5097836;27;45905;-62
2022/10/24 00:11:20;;;;;;;;;1.25;0.50;;;;;18.48;58.31;99856.06;5092415;27;45814;-61
2022/10/24 00:13:45;;;;;;;;;0.00;0.00;;;;;18.46;58.42;99847.34;5084190;27;45577;-62
2022/10/24 00:16:11;;;;;;;;;2.00;2.00;;;;;18.45;58.40;99847.44;5097452;27;45588;-61
2022/10/24 00:18:37;;;;;;;;;2.50;1.00;;;;;18.44;58.71;99849.28;5092666;27;45568;-62
2022/10/24 00:21:03;;;;;;;;;0.00;0.00;;;;;18.43;58.60;99834.28;5097554;27;45432;-62
2022/10/24 00:23:28;;;;;;;;;3.00;1.00;;;;;18.39;58.30;99837.28;5090202;27;45620;-61
2022/10/24 00:25:54;;;;;;;;;0.00;0.00;;;;;18.37;58.50;99840.06;5097826;27;45427;-62
2022/10/24 00:28:19;;;;;;;;;0.00;0.00;;;;;18.36;58.70;99842.88;5097723;27;45361;-61
2022/10/24 00:30:49;;;;;;;;;0.50;0.50;;;;;18.29;58.92;99843.34;5097246;27;51229;-62
2022/10/24 00:33:15;;;;;;;;;0.00;0.00;;;;;18.30;59.07;99854.84;5096920;27;45380;-62
2022/10/24 00:35:41;;;;;;;;;1.00;1.00;;;;;18.24;58.90;99845.53;5093433;27;45392;-62
2022/10/24 00:38:06;;;;;;;;;0.00;0.00;;;;;18.26;59.17;99848.06;5085414;27;46485;-61
2022/10/24 00:40:31;;;;;;;;;1.75;1.75;;;;;18.20;59.23;99860.03;5093761;27;51695;-61
2022/10/24 00:42:57;;;;;;;;;1.25;1.25;;;;;18.21;59.25;99859.06;5096638;27;45759;-62
2022/10/24 00:45:43;;;;;;;;;1.00;1.00;;;;;18.19;59.28;99853.03;5080167;27;45417;-62
2022/10/24 00:48:14;;;;;;;;;0.50;0.50;;;;;18.16;59.12;99841.78;5084888;27;45471;-61
2022/10/24 00:50:39;;;;;;;;;0.25;0.00;;;;;18.14;59.08;99835.75;5096221;27;45377;-61
2022/10/24 00:53:04;;;;;;;;;0.00;0.00;;;;;18.12;59.72;99849.16;5098418;27;45432;-62
2022/10/24 00:55:30;;;;;;;;;0.25;0.25;;;;;18.13;59.69;99853.50;5098015;27;45363;-62
2022/10/24 00:58:00;;;;;;;;;1.00;0.75;;;;;18.11;59.62;99850.13;5097698;27;46351;-61
2022/10/24 01:00:29;;;;;;;;;1.25;1.00;;;;;18.08;59.42;99859.22;5097620;27;45417;-61
2022/10/24 01:02:54;;;;;;;;;1.50;1.00;;;;;18.09;59.63;99868.88;5096742;27;45446;-62
2022/10/24 01:05:23;;;;;;;;;0.50;0.50;;;;;18.07;59.92;99873.47;5097552;27;45504;-62
2022/10/24 01:08:26;;;;;;;;;1.75;0.75;;;;;18.08;59.66;99875.19;5098047;27;45513;-61
2022/10/24 01:11:16;;;;;;;;;1.50;1.00;;;;;18.09;59.84;99874.19;5097403;27;45472;-62
2022/10/24 01:14:01;;;;;;;;;0.75;0.75;;;;;18.04;60.43;99870.22;5077652;27;45453;-61
2022/10/24 01:16:39;;;;;;;;;0.25;0.00;;;;;18.05;60.17;99887.84;5086036;27;45363;-61
2022/10/24 01:19:20;;;;;;;;;1.00;1.00;;;;;18.03;60.61;99903.97;5085560;27;46388;-61
2022/10/24 01:21:54;;;;;;;;;0.00;0.00;;;;;18.05;59.99;99903.81;5092230;27;45503;-62
2022/10/24 01:24:37;;;;;;;;;1.00;1.00;;;;;18.05;60.12;99911.81;5094787;27;45412;-61
2022/10/24 01:27:30;;;;;;;;;3.50;1.00;;;;;18.05;60.29;99915.34;5095056;27;45410;-62
2022/10/24 01:30:09;;;;;;;;;1.75;1.75;;;;;18.07;60.10;99910.72;5096557;27;45468;-62
2022/10/24 01:32:49;;;;;;;;;1.50;0.00;;;;;18.07;60.33;99920.53;5084997;27;45455;-62
2022/10/24 01:35:22;;;;;;;;;0.00;0.00;;;;;18.09;60.29;99927.41;5089536;27;45389;-61
2022/10/24 01:38:14;;;;;;;;;2.00;1.00;;;;;18.10;60.25;99914.97;5090720;27;45563;-61
2022/10/24 01:40:57;;;;;;;;;2.00;0.50;;;;;18.12;60.44;99926.34;5072160;27;45523;-62
2022/10/24 01:43:27;;;;;;;;;1.25;1.25;;;;;18.11;60.63;99927.31;5096572;27;45610;-62
2022/10/24 01:46:00;;;;;;;;;1.00;1.00;;;;;18.07;60.47;99929.34;5091809;27;45351;-61
2022/10/24 01:48:29;;;;;;;;;0.75;0.25;;;;;18.00;60.51;99909.53;5089191;27;45738;-61
2022/10/24 01:50:58;;;;;;;;;0.00;0.00;;;;;18.05;60.17;99915.34;5090699;27;45417;-61
2022/10/24 01:53:27;;;;;;;;;0.00;0.00;;;;;18.03;60.62;99913.75;5095572;27;45443;-61
2022/10/24 01:55:53;;;;;;;;;1.00;1.00;;;;;18.02;60.71;99910.22;5082702;27;45487;-64
2022/10/24 01:58:18;;;;;;;;;1.75;1.00;;;;;18.00;60.98;99903.31;5095840;27;45448;-62
2022/10/24 02:00:47;;;;;;;;;0.00;0.00;;;;;18.04;60.77;99907.47;5094601;27;45294;-62
2022/10/24 02:03:47;;;;;;;;;1.00;1.00;;;;;18.02;61.02;99904.91;5096549;27;45460;-62
2022/10/24 02:06:18;;;;;;;;;1.00;1.00;;;;;18.02;60.73;99914.72;5092596;27;45495;-61
2022/10/24 02:08:48;;;;;;;;;1.50;1.00;;;;;17.99;60.72;99909.63;5085966;27;45530;-61
2022/10/24 02:11:14;;;;;;;;;2.50;1.25;;;;;18.01;61.07;99915.69;5090497;27;46146;-62
2022/10/24 02:13:54;;;;;;;;;0.75;0.25;;;;;17.98;60.88;99911.44;5078065;27;45472;-62
2022/10/24 02:16:20;;;;;;;;;1.00;1.00;;;;;17.99;60.94;99902.50;5081948;27;45505;-61
2022/10/24 02:18:48;;;;;;;;;0.75;0.25;;;;;17.98;60.78;99910.59;5095345;27;45517;-61
2022/10/24 02:21:48;;;;;;;;;1.75;1.75;;;;;17.95;60.80;99901.03;5085109;27;45565;-62
2022/10/24 02:24:42;;;;;;;;;0.50;0.50;;;;;17.95;61.04;99894.88;5078846;27;45824;-61
2022/10/24 02:27:08;;;;;;;;;2.00;0.75;;;;;17.93;61.17;99887.00;5087361;27;45572;-61
2022/10/24 02:29:46;;;;;;;;;1.00;0.00;;;;;17.91;61.28;99888.94;5082148;27;45495;-61
2022/10/24 02:32:17;;;;;;;;;1.25;0.00;;;;;17.87;61.53;99882.16;5086049;27;46315;-62
2022/10/24 02:34:45;;;;;;;;;0.50;0.50;;;;;17.86;61.48;99878.63;5093980;27;45387;-61
2022/10/24 02:37:11;;;;;;;;;3.00;1.00;;;;;17.84;61.78;99885.06;5091475;27;45385;-61
2022/10/24 02:39:39;;;;;;;;;3.50;1.00;;;;;17.80;61.91;99876.47;5092925;27;45649;-62
2022/10/24 02:42:07;;;;;;;;;3.75;1.75;;;;;17.81;62.13;99875.50;5082555;27;46392;-61
2022/10/24 02:44:34;;;;;;;;;3.75;1.00;;;;;17.80;61.71;99867.63;5090094;27;45583;-61
2022/10/24 02:47:03;;;;;;;;;0.00;0.00;;;;;17.78;61.88;99866.88;5095182;27;45518;-61
2022/10/24 02:49:28;;;;;;;;;1.25;0.75;;;;;17.76;62.16;99872.31;5096079;27;45503;-61
2022/10/24 02:51:54;;;;;;;;;1.00;0.00;;;;;17.75;61.66;99864.44;5088545;27;49700;-61
2022/10/24 02:54:20;;;;;;;;;1.00;1.00;;;;;17.69;62.00;99860.44;5095794;27;45476;-61
2022/10/24 02:56:51;;;;;;;;;1.75;1.75;;;;;17.69;61.94;99856.94;5096347;27;45422;-62
2022/10/24 02:59:16;;;;;;;;;0.00;0.00;;;;;17.69;62.14;99854.28;5096462;27;45408;-62
2022/10/24 03:01:42;;;;;;;;;2.00;2.00;;;;;17.67;61.76;99852.56;5083445;27;45437;-62
2022/10/24 03:04:07;;;;;;;;;3.75;2.75;;;;;17.67;61.94;99862.38;5091166;27;45504;-62
2022/10/24 03:06:32;;;;;;;;;1.50;1.00;;;;;17.66;61.87;99863.34;5096285;27;45507;-62
2022/10/24 03:08:58;;;;;;;;;1.00;0.50;;;;;17.65;62.36;99866.94;5096156;27;46171;-62
2022/10/24 03:11:23;;;;;;;;;2.75;1.00;;;;;17.63;62.89;99868.91;5095593;27;46219;-61
2022/10/24 03:13:48;;;;;;;;;2.25;1.50;;;;;17.59;62.10;99856.78;5096087;27;45505;-61
2022/10/24 03:16:14;;;;;;;;;1.00;1.00;;;;;17.59;62.45;99864.78;5087990;27;45432;-61
2022/10/24 03:18:39;;;;;;;;;1.00;1.00;;;;;17.60;62.54;99871.81;5095123;27;45405;-61
2022/10/24 03:21:05;;;;;;;;;1.00;0.75;;;;;17.59;62.54;99878.91;5094559;27;51327;-62
2022/10/24 03:23:30;;;;;;;;;2.00;1.25;;;;;17.58;61.93;99877.22;5086041;27;45424;-62
2022/10/24 03:25:56;;;;;;;;;1.75;0.75;;;;;17.57;62.69;99880.88;5094083;27;45530;-62
2022/10/24 03:28:22;;;;;;;;;2.00;0.50;;;;;17.56;62.53;99887.13;5089552;27;45441;-62
2022/10/24 03:30:47;;;;;;;;;0.75;0.75;;;;;17.59;63.12;99883.38;5093326;27;45670;-61
2022/10/24 03:33:13;;;;;;;;;2.25;1.25;;;;;17.58;62.88;99879.88;5092569;27;45487;-61
2022/10/24 03:35:38;;;;;;;;;1.75;1.00;;;;;17.59;62.39;99883.38;5095236;27;45736;-62
2022/10/24 03:38:07;;;;;;;;;1.00;1.00;;;;;17.58;62.42;99906.47;5093741;27;45504;-62
2022/10/24 03:40:33;;;;;;;;;3.25;2.00;;;;;17.55;62.86;99890.75;5088904;27;46032;-62
2022/10/24 03:42:58;;;;;;;;;0.50;0.00;;;;;17.54;62.99;99899.69;5084130;27;45424;-62
2022/10/24 03:45:23;;;;;;;;;2.75;2.00;;;;;17.55;62.61;99898.75;5088468;27;45402;-61
2022/10/24 03:47:49;;;;;;;;;2.00;0.50;;;;;17.52;63.25;99900.78;5095673;27;45322;-62
2022/10/24 03:50:14;;;;;;;;;1.00;1.00;;;;;17.49;62.75;99901.88;5093839;27;45802;-61
2022/10/24 03:52:40;;;;;;;;;5.33;3.67;;;;;17.48;63.24;99900.16;5094527;27;45472;-61
2022/10/24 03:55:05;;;;;;;;;4.00;0.00;;;;;17.49;62.88;99916.94;5095829;27;45315;-61
2022/10/24 03:57:30;;;;;;;;;1.00;0.50;;;;;17.48;63.22;99916.09;5091931;27;45681;-62
2022/10/24 03:59:56;;;;;;;;;3.00;2.00;;;;;17.48;63.41;99910.78;5091612;27;45534;-62
2022/10/24 04:02:21;;;;;;;;;1.50;1.00;;;;;17.50;63.34;99919.50;5094637;27;45421;-62
2022/10/24 04:04:46;;;;;;;;;3.33;1.67;;;;;17.48;63.92;99932.06;5091469;27;45445;-61
2022/10/24 04:07:12;;;;;;;;;1.00;1.00;;;;;17.46;63.24;99926.00;5093033;27;45568;-62
2022/10/24 04:09:37;;;;;;;;;2.00;0.75;;;;;17.45;63.17;99927.81;5092004;27;45456;-62
2022/10/24 04:12:03;;;;;;;;;2.75;2.75;;;;;17.42;63.67;99936.03;5093620;27;46381;-62
2022/10/24 04:14:28;;;;;;;;;1.50;1.00;;;;;17.38;63.62;99936.34;5094220;27;45511;-62
2022/10/24 04:16:53;;;;;;;;;1.50;1.00;;;;;17.37;63.94;99946.16;5093641;27;45429;-61
2022/10/24 04:19:19;;;;;;;;;2.75;2.00;;;;;17.39;63.81;99943.38;5099252;27;45418;-61
2022/10/24 04:21:46;;;;;;;;;2.67;2.67;;;;;17.35;63.94;99952.53;5094328;27;45476;-62
2022/10/24 04:24:12;;;;;;;;;0.75;0.75;;;;;17.30;63.75;99947.59;5087424;27;45452;-62
2022/10/24 04:26:37;;;;;;;;;3.50;2.50;;;;;17.34;64.06;99945.53;5091834;27;45563;-63
2022/10/24 04:29:03;;;;;;;;;5.33;3.00;;;;;17.32;63.66;99950.09;5089875;27;46165;-61
2022/10/24 04:31:28;;;;;;;;;2.00;2.00;;;;;17.31;63.78;99961.72;5097359;27;45436;-61
2022/10/24 04:33:54;;;;;;;;;2.00;2.00;;;;;17.29;63.46;99953.00;5095816;27;46036;-61
2022/10/24 04:36:20;;;;;;;;;2.75;0.50;;;;;17.28;64.19;99965.44;5096949;27;45509;-62
2022/10/24 04:38:45;;;;;;;;;3.33;3.00;;;;;17.25;64.14;99971.00;5094876;27;46245;-61
2022/10/24 04:41:11;;;;;;;;;0.75;0.75;;;;;17.25;64.31;99976.31;5097623;27;45374;-62
2022/10/24 04:43:36;;;;;;;;;3.33;2.00;;;;;17.26;64.06;99977.16;5095928;27;45475;-61
2022/10/24 04:46:02;;;;;;;;;4.00;3.00;;;;;17.25;64.68;99978.97;5088154;27;45461;-62
2022/10/24 04:48:27;;;;;;;;;3.67;1.00;;;;;17.24;64.62;99993.19;5097310;27;45491;-61
2022/10/24 04:50:53;;;;;;;;;0.25;0.25;;;;;17.22;64.69;99982.69;5084585;27;49158;-62
2022/10/24 04:53:18;;;;;;;;;2.00;1.67;;;;;17.21;64.55;99994.25;5098132;27;45436;-61
2022/10/24 04:55:44;;;;;;;;;1.00;1.00;;;;;17.22;64.69;99995.09;5098137;27;45495;-62
2022/10/24 04:58:09;;;;;;;;;3.00;1.00;;;;;17.22;64.34;99993.31;5098086;27;46054;-61
2022/10/24 05:00:34;;;;;;;;;3.67;2.67;;;;;17.22;64.46;99989.78;5097231;27;45476;-61
2022/10/24 05:03:00;;;;;;;;;2.00;1.00;;;;;17.21;64.19;100006.69;5091990;27;45461;-62
2022/10/24 05:05:25;;;;;;;;;1.00;1.00;;;;;17.20;64.33;100002.38;5098182;27;45463;-62
2022/10/24 05:07:51;;;;;;;;;4.00;2.00;;;;;17.21;64.71;100006.69;5093541;27;46051;-62
2022/10/24 05:10:16;;;;;;;;;1.25;1.25;;;;;17.17;63.91;100006.09;5094512;27;45521;-61
2022/10/24 05:12:42;;;;;;;;;2.00;2.00;;;;;17.17;64.80;100014.06;5091748;27;45430;-61
2022/10/24 05:15:09;;;;;;;;;1.25;1.00;;;;;17.19;64.76;100027.22;5097967;27;45494;-62
2022/10/24 05:17:34;;;;;;;;;2.33;1.67;;;;;17.17;64.62;100024.69;5087565;27;45476;-61
2022/10/24 05:19:59;;;;;;;;;3.00;1.00;;;;;17.21;64.54;100038.59;5085017;27;45448;-62
2022/10/24 05:22:25;;;;;;;;;2.33;1.33;;;;;17.17;64.69;100035.31;5097148;27;45369;-61
2022/10/24 05:24:50;;;;;;;;;3.00;3.00;;;;;17.17;64.73;100037.13;5097743;27;45644;-61
2022/10/24 05:27:20;;;;;;;;;4.00;2.00;;;;;17.19;64.86;100043.16;5097296;27;46046;-61
2022/10/24 05:29:45;;;;;;;;;3.00;1.00;;;;;17.20;64.73;100034.25;5096482;27;45529;-62
2022/10/24 05:32:11;;;;;;;;;0.33;0.33;;;;;17.17;65.19;100045.09;5094474;27;46499;-62
2022/10/24 05:34:36;;;;;;;;;2.00;2.00;;;;;17.18;65.52;100042.31;5090302;27;45554;-62
2022/10/24 05:37:01;;;;;;;;;1.00;1.00;;;;;17.20;65.48;100055.50;5096563;27;45688;-62
2022/10/24 05:39:27;;;;;;;;;1.67;1.67;;;;;17.20;65.42;100052.84;5086024;27;45981;-62
2022/10/24 05:41:52;;;;;;;;;2.67;2.00;;;;;17.21;65.51;100059.84;5096954;27;48047;-62
2022/10/24 05:44:18;;;;;;;;;0.67;0.67;;;;;17.20;65.18;100053.69;5097010;27;48044;-61
2022/10/24 05:46:43;;;;;;;;;1.67;1.67;;;;;17.22;64.91;100058.88;5096859;27;46099;-61
2022/10/24 05:49:12;;;;;;;;;1.75;1.75;;;;;17.23;65.48;100060.59;5096026;27;45370;-61
2022/10/24 05:51:37;;;;;;;;;2.50;2.50;;;;;17.20;65.30;100053.69;5096770;27;45504;-61
2022/10/24 05:54:03;;;;;;;;;2.00;2.00;;;;;17.21;65.73;100055.38;5095876;27;45563;-62
2022/10/24 05:56:28;;;;;;;;;5.00;1.25;;;;;17.18;65.91;100055.59;5096547;27;46304;-60
2022/10/24 05:58:55;;;;;;;;;3.33;1.00;;;;;17.16;65.63;100057.53;5087771;27;45532;-60
2022/10/24 06:01:21;;;;;;;;;2.33;2.33;;;;;17.12;65.45;100053.41;5083002;27;45438;-60
2022/10/24 06:03:46;;;;;;;;;4.00;3.00;;;;;17.11;65.80;100050.84;5087511;27;54471;-60
2022/10/24 06:06:11;;;;;;;;;1.33;1.33;;;;;17.14;65.77;100063.91;5086266;27;46621;-59
2022/10/24 06:08:37;;;;;;;;;2.67;2.33;;;;;17.09;65.68;100052.78;5089918;27;45395;-60
2022/10/24 06:11:03;;;;;;;;;3.00;1.00;;;;;17.11;65.72;100074.75;5093046;27;45517;-60
2022/10/24 06:13:29;;;;;;;;;3.00;2.00;;;;;17.08;65.73;100061.69;5088449;27;45507;-60
2022/10/24 06:15:55;;;;;;;;;2.33;2.33;;;;;17.11;65.89;100061.47;5081359;27;45560;-60
2022/10/24 06:18:20;;;;;;;;;3.33;2.33;;;;;17.10;65.84;100065.94;5082678;27;45518;-60
2022/10/24 06:20:46;;;;;;;;;4.33;3.00;;;;;17.09;65.91;100066.06;5087922;27;45507;-60
2022/10/24 06:23:11;;;;;;;;;2.25;2.25;;;;;17.12;65.58;100068.50;5090863;27;45769;-63
2022/10/24 06:25:39;;;;;;;;;2.25;1.00;;;;;17.07;65.62;100078.59;5084940;27;45524;-60
2022/10/24 06:28:06;;;;;;;;;2.00;2.00;;;;;17.03;65.33;100064.66;5096496;27;45455;-60
2022/10/24 06:30:32;;;;;;;;;2.00;2.00;;;;;17.04;66.01;100071.69;5096362;27;45425;-60
2022/10/24 06:32:58;;;;;;;;;3.33;0.67;;;;;17.05;65.72;100080.50;5096152;27;45497;-60
2022/10/24 06:35:23;;;;;;;;;2.00;2.00;;;;;17.05;65.25;100076.03;5095135;27;45473;-60
2022/10/24 06:37:48;;;;;;;;;3.67;3.33;;;;;17.05;65.40;100088.47;5096475;27;45330;-60
2022/10/24 06:40:14;;;;;;;;;4.33;2.33;;;;;17.07;65.43;100091.88;5095698;27;45331;-61
2022/10/24 06:42:40;;;;;;;;;5.00;3.00;;;;;17.08;65.40;100098.88;5095610;27;45340;-60
2022/10/24 06:45:05;;;;;;;;;4.00;2.00;;;;;17.08;65.09;100104.19;5094719;27;56104;-60
2022/10/24 06:47:31;;;;;;;;;3.33;3.33;;;;;17.07;65.43;100110.47;5095569;27;45487;-60
2022/10/24 06:49:56;;;;;;;;;5.00;2.33;;;;;17.02;65.33;100107.28;5096058;27;45383;-60
2022/10/24 06:52:22;;;;;;;;;3.00;1.00;;;;;17.02;65.41;100115.25;5095743;27;45532;-60
2022/10/24 06:54:48;;;;;;;;;5.00;4.00;;;;;16.97;65.32;100119.06;5095654;27;45531;-60
2022/10/24 06:57:13;;;;;;;;;4.67;1.00;;;;;16.95;65.64;100105.06;5095491;27;45363;-60
2022/10/24 06:59:39;;;;;;;;;4.67;2.67;;;;;16.93;65.75;100109.63;5095683;27;45422;-60
2022/10/24 07:02:04;;;;;;;;;2.00;2.00;;;;;16.91;65.69;100108.03;5095867;27;45516;-60
2022/10/24 07:04:30;;;;;;;;;3.00;3.00;;;;;16.89;65.93;100104.63;5095603;27;45489;-60
2022/10/24 07:06:55;;;;;;;;;5.33;2.33;;;;;16.89;65.65;100112.59;5095681;27;45509;-61
2022/10/24 07:09:20;;;;;;;;;3.33;3.00;;;;;16.83;65.93;100113.88;5095695;27;45410;-60
2022/10/24 07:11:47;;;;;;;;;2.33;2.33;;;;;16.81;66.02;100118.44;5095600;27;45698;-60
2022/10/24 07:14:12;;;;;;;;;3.67;3.67;;;;;16.82;66.27;100120.16;5095567;27;45691;-60
2022/10/24 07:16:38;;;;;;;;;3.33;2.67;;;;;16.82;65.46;100129.91;5095622;27;45481;-61
2022/10/24 07:19:04;;;;;;;;;5.67;4.00;;;;;16.80;65.84;100129.19;5087453;27;45482;-60
2022/10/24 07:21:31;;;;;;;;;3.00;1.00;;;;;16.81;65.88;100125.56;5089767;27;45612;-60
2022/10/24 07:23:58;;;;;;;;;5.00;5.00;;;;;16.82;66.05;100137.88;5095342;27;46259;-62
2022/10/24 07:26:26;;;;;;;;;3.67;2.00;;;;;16.81;65.99;100152.97;5095271;27;45551;-60
2022/10/24 07:28:54;;;;;;;;;2.00;0.00;;;;;16.83;66.41;100142.25;5095050;27;45475;-60
2022/10/24 07:31:21;;;;;;;;;3.33;2.00;;;;;16.85;66.19;100156.28;5095247;27;45552;-60
2022/10/24 07:33:47;;;;;;;;;2.33;2.33;;;;;16.88;65.60;100161.38;5094917;27;45547;-60
2022/10/24 07:36:18;;;;;;;;;3.33;3.33;;;;;16.92;65.83;100170.81;5096018;27;45458;-60
2022/10/24 07:38:44;;;;;;;;;2.67;2.67;;;;;16.94;65.67;100150.31;5095556;27;45516;-60
2022/10/24 07:41:10;;;;;;;;;4.00;4.00;;;;;16.94;66.28;100155.63;5095115;27;45579;-60
2022/10/24 07:43:35;;;;;;;;;3.33;3.33;;;;;16.96;65.89;100161.72;5095112;27;46200;-61
2022/10/24 07:46:05;;;;;;;;;5.33;4.33;;;;;16.96;65.88;100167.88;5094771;27;45460;-60
2022/10/24 07:48:30;;;;;;;;;2.33;2.00;;;;;16.99;66.04;100174.78;5096749;27;45436;-60
2022/10/24 07:50:55;;;;;;;;;2.67;2.33;;;;;17.02;66.02;100179.88;5098224;27;46866;-60
2022/10/24 07:53:21;;;;;;;;;1.00;1.00;;;;;17.03;65.68;100180.72;5098710;27;46030;-61
2022/10/24 07:55:46;;;;;;;;;2.33;1.67;;;;;17.03;65.34;100188.69;5098730;27;45437;-60
2022/10/24 07:58:12;;;;;;;;;4.00;3.00;;;;;17.01;65.87;100188.81;5098662;27;45427;-61
2022/10/24 08:00:38;;;;;;;;;3.00;3.00;;;;;17.03;65.74;100192.19;5098674;27;45497;-60
2022/10/24 08:03:03;;;;;;;;;2.33;2.33;;;;;17.04;65.86;100195.72;5098485;27;46167;-61
2022/10/24 08:05:29;;;;;;;;;6.67;5.67;;;;;17.02;66.03;100197.63;5098535;27;45385;-60
2022/10/24 08:07:54;;;;;;;;;3.00;3.00;;;;;16.99;66.59;100204.84;5098366;27;45380;-62
2022/10/24 08:10:20;;;;;;;;;3.00;3.00;;;;;17.03;66.36;100200.16;5098717;27;45377;-59
2022/10/24 08:12:45;;;;;;;;;4.67;3.00;;;;;17.09;66.43;100212.19;5097895;27;46201;-60
2022/10/24 08:15:11;;;;;;;;;3.00;2.67;;;;;17.16;66.27;100216.97;5098477;27;45407;-60
2022/10/24 08:17:36;;;;;;;;;1.33;1.00;;;;;17.16;66.02;100213.47;5098593;27;45469;-60
2022/10/24 08:20:07;;;;;;;;;3.33;3.33;;;;;17.18;65.76;100208.91;5098199;27;45619;-60
2022/10/24 08:22:34;;;;;;;;;1.67;1.67;;;;;17.25;66.09;100209.31;5098260;27;46251;-59
2022/10/24 08:25:04;;;;;;;;;3.00;3.00;;;;;17.27;65.74;100199.44;5098060;27;45380;-59
2022/10/24 08:27:30;;;;;;;;;8.33;3.00;;;;;17.31;65.45;100214.22;5098362;27;45482;-59
2022/10/24 08:29:55;;;;;;;;;1.33;1.33;;;;;17.35;65.39;100216.53;5098426;27;45593;-60
2022/10/24 08:32:20;;;;;;;;;4.33;3.00;;;;;17.36;65.12;100209.44;5097205;27;55636;-60
2022/10/24 08:34:46;;;;;;;;;4.00;4.00;;;;;17.35;65.17;100223.66;5097853;27;46613;-60
2022/10/24 08:37:11;;;;;;;;;9.00;2.33;;;;;17.33;65.04;100214.94;5098684;27;45867;-60
2022/10/24 08:39:37;;;;;;;;;3.33;2.00;;;;;17.33;65.11;100214.94;5098107;27;45457;-60
2022/10/24 08:42:06;;;;;;;;;2.33;2.33;;;;;17.36;65.19;100228.03;5097521;27;45646;-60
2022/10/24 08:44:40;;;;;;;;;2.00;2.00;;;;;17.38;64.95;100226.97;5097826;27;45389;-60
2022/10/24 08:47:27;;;;;;;;;4.33;4.00;;;;;17.36;64.31;100225.38;5097749;27;45523;-60
2022/10/24 08:50:08;;;;;;;;;3.00;1.00;;;;;17.37;64.90;100233.25;5097683;27;45413;-61
2022/10/24 08:52:42;;;;;;;;;6.00;1.67;;;;;17.39;64.78;100236.66;5097488;27;46227;-60
2022/10/24 08:55:16;;;;;;;;;3.00;2.00;;;;;17.43;64.65;100231.94;5097803;27;45898;-60
2022/10/24 08:57:46;;;;;;;;;3.00;2.00;;;;;17.45;64.68;100227.38;5097587;27;45408;-60
2022/10/24 09:00:40;;;;;;;;;5.00;2.00;;;;;17.48;65.00;100234.31;5097001;27;45428;-61
2022/10/24 09:03:30;;;;;;;;;6.00;4.00;;;;;17.50;65.09;100229.72;5097462;27;45489;-60
2022/10/24 09:06:00;;;;;;;;;4.67;3.33;;;;;17.47;65.24;100229.94;5097347;27;45538;-60
2022/10/24 09:08:48;;;;;;;;;8.67;5.00;;;;;17.47;64.68;100237.94;5097442;27;45415;-61
2022/10/24 09:11:25;;;;;;;;;4.33;2.67;;;;;17.48;64.98;100232.50;5090109;27;45673;-61
2022/10/24 09:13:50;;;;;;;;;5.00;1.00;;;;;17.53;64.99;100229.50;5097004;27;45528;-60
2022/10/24 09:16:20;;;;;;;;;5.00;4.00;;;;;17.59;64.55;100239.72;5096773;27;45451;-60
2022/10/24 09:18:50;;;;;;;;;3.33;3.33;;;;;17.65;64.43;100241.94;5091534;27;45423;-60
2022/10/24 09:21:15;;;;;;;;;5.00;3.67;;;;;17.64;64.26;100248.22;5088990;27;45462;-60
2022/10/24 09:23:41;;;;;;;;;5.67;3.00;;;;;17.66;64.21;100251.63;5096762;27;47493;-61
2022/10/24 09:26:14;;;;;;;;;4.67;3.67;;;;;17.65;64.27;100252.56;5097142;27;45525;-61
2022/10/24 09:28:40;;;;;;;;;10.67;10.67;;;;;17.66;64.36;100254.28;5097147;27;45417;-62
2022/10/24 09:31:20;;;;;;;;;4.00;2.33;;;;;17.67;64.58;100250.66;5097170;27;45474;-62
2022/10/24 09:33:48;;;;;;;;;11.67;11.33;;;;;17.68;64.22;100252.38;5097084;27;46142;-61
2022/10/24 09:36:16;;;;;;;;;3.00;2.00;;;;;17.67;64.28;100250.66;5097151;27;45488;-62
2022/10/24 09:38:42;;;;;;;;;5.33;5.33;;;;;17.67;64.22;100262.13;5097653;27;45395;-61
2022/10/24 09:41:23;;;;;;;;;3.00;2.00;;;;;17.71;64.28;100257.47;5097039;27;45517;-60
2022/10/24 09:43:53;;;;;;;;;5.67;2.00;;;;;17.72;64.20;100264.47;5097246;27;45459;-61
2022/10/24 09:46:23;;;;;;;;;4.00;4.00;;;;;17.74;64.86;100277.69;5096844;27;45365;-61
2022/10/24 09:49:16;;;;;;;;;2.33;2.00;;;;;17.78;64.82;100280.00;5096630;27;45548;-59
2022/10/24 09:52:04;;;;;;;;;10.33;10.33;;;;;17.82;64.42;100276.22;5096847;27;45590;-59
2022/10/24 09:54:31;;;;;;;;;7.33;3.00;;;;;17.79;64.61;100265.78;5096463;27;46354;-60
2022/10/24 09:57:03;;;;;;;;;5.67;3.00;;;;;17.81;64.81;100274.53;5096440;27;45453;-61
2022/10/24 09:59:56;;;;;;;;;2.33;2.00;;;;;17.84;64.22;100286.75;5096551;27;45727;-61
2022/10/24 10:02:28;;;;;;;;;3.00;3.00;;;;;17.88;64.27;100283.75;5096070;27;45500;-62
2022/10/24 10:05:21;;;;;;;;;5.33;2.67;;;;;17.91;64.39;100282.69;5096480;27;46223;-62
2022/10/24 10:07:49;;;;;;;;;5.00;5.00;;;;;17.96;64.33;100287.69;5091921;27;45531;-63
2022/10/24 10:10:17;;;;;;;;;2.50;1.75;;;;;17.99;64.26;100293.63;5095989;27;45563;-62
2022/10/24 10:12:45;;;;;;;;;1.75;1.75;;;;;18.02;64.08;100298.72;5095707;27;45614;-62
2022/10/24 10:15:49;;;;;;;;;2.00;2.00;;;;;18.08;63.71;100300.09;5096429;27;45490;-61
2022/10/24 10:18:27;;;;;;;;;1.00;1.00;;;;;18.16;63.41;100297.78;5095211;27;45326;-62
2022/10/24 10:20:59;;;;;;;;;3.00;3.00;;;;;18.24;63.35;100300.72;5084981;27;45513;-62
2022/10/24 10:23:30;;;;;;;;;2.00;2.00;;;;;18.26;63.27;100293.47;5095851;27;45436;-63
2022/10/24 10:26:19;;;;;;;;;5.00;2.00;;;;;18.26;62.76;100297.94;5095293;27;47083;-60
2022/10/24 10:28:56;;;;;;;;;3.00;1.25;;;;;18.33;62.52;100294.72;5096029;27;45508;-61
2022/10/24 10:31:26;;;;;;;;;5.00;4.25;;;;;18.38;62.71;100294.41;5096136;27;45481;-60
2022/10/24 10:34:11;;;;;;;;;2.00;2.00;;;;;18.40;62.97;100292.47;5095875;27;45425;-61
2022/10/24 10:36:51;;;;;;;;;6.67;4.33;;;;;18.45;62.80;100284.97;5095964;27;45475;-61
2022/10/24 10:39:31;;;;;;;;;5.67;4.67;;;;;18.50;62.65;100303.28;5081838;27;45402;-60
2022/10/24 10:42:11;;;;;;;;;3.25;2.25;;;;;18.53;62.49;100300.41;5095549;27;45367;-60
2022/10/24 10:44:40;;;;;;;;;3.00;2.00;;;;;18.57;62.20;100303.72;5095511;27;45745;-60
2022/10/24 10:47:18;;;;;;;;;4.75;3.50;;;;;18.55;62.35;100299.31;5095294;27;45357;-60
2022/10/24 10:49:47;;;;;;;;;3.50;3.00;;;;;18.56;62.47;100300.19;5095781;27;45591;-60
2022/10/24 10:52:18;;;;;;;;;5.25;3.75;;;;;18.63;62.45;100306.75;5095482;27;45414;-60
2022/10/24 10:55:21;;;;;;;;;5.00;2.00;;;;;18.71;61.96;100303.53;5095736;27;45508;-60
2022/10/24 10:58:01;;;;;;;;;6.00;4.00;;;;;18.76;61.99;100307.59;5095247;27;46668;-61
2022/10/24 11:00:53;;;;;;;;;5.50;4.00;;;;;18.80;61.82;100302.03;5095468;27;45496;-60
2022/10/24 11:03:34;;;;;;;;;5.25;3.00;;;;;18.89;61.05;100302.19;5088859;27;45577;-61
2022/10/24 11:06:09;;;;;;;;;3.50;3.50;;;;;18.94;60.74;100301.84;5095863;27;45302;-59
2022/10/24 11:09:11;;;;;;;;;3.25;3.25;;;;;18.90;61.31;100309.22;5089150;27;46362;-61
2022/10/24 11:11:41;;;;;;;;;3.75;3.75;;;;;18.90;60.76;100303.88;5090240;27;45441;-60
2022/10/24 11:14:23;;;;;;;;;6.50;4.75;;;;;18.92;60.98;100301.13;5090355;27;45490;-60
2022/10/24 11:16:50;;;;;;;;;9.00;4.00;;;;;18.93;60.44;100302.81;5082483;27;45379;-60
2022/10/24 11:19:39;;;;;;;;;3.00;3.00;;;;;18.87;61.08;100316.59;5085240;27;45445;-60
2022/10/24 11:22:12;;;;;;;;;9.67;9.00;;;;;18.86;60.66;100318.44;5084384;27;45497;-60
2022/10/24 11:24:45;;;;;;;;;3.25;3.25;;;;;18.85;61.05;100311.38;5100471;27;45409;-60
2022/10/24 11:27:21;;;;;;;;;8.00;7.00;;;;;18.82;61.43;100302.78;5099162;27;45414;-60
2022/10/24 11:29:55;;;;;;;;;5.00;3.75;;;;;18.81;60.80;100296.59;5094898;27;45414;-60
2022/10/24 11:32:39;;;;;;;;;5.00;4.50;;;;;18.79;61.43;100317.16;5077085;27;45502;-60
2022/10/24 11:35:26;;;;;;;;;3.25;1.50;;;;;18.80;61.91;100307.34;5091314;27;45343;-61
2022/10/24 11:37:58;;;;;;;;;7.00;5.67;;;;;18.78;61.43;100312.81;5087100;27;45441;-60
2022/10/24 11:40:28;;;;;;;;;2.00;2.00;;;;;18.77;61.75;100305.78;5078155;27;45988;-60
2022/10/24 11:43:32;;;;;;;;;3.00;3.00;;;;;18.70;62.64;100305.34;5078176;27;45456;-60